sensor_id;sensor_type;location;lat;lon;timestamp;pressure;altitude;pressure_sealevel;temperature;humidity
54666;BME280;40566;50.006;36.180;2024-02-21T00:03:45;100773.06;;;-1.23;54.37
54666;BME280;40566;50.006;36.180;2024-02-21T00:09:04;100773.31;;;-1.16;54.51
54666;BME280;40566;50.006;36.180;2024-02-21T00:14:23;100768.25;;;-1.16;54.72
54666;BME280;40566;50.006;36.180;2024-02-21T00:19:42;100767.22;;;-1.22;54.85
54666;BME280;40566;50.006;36.180;2024-02-21T00:25:01;100764.75;;;-1.18;54.84
54666;BME280;40566;50.006;36.180;2024-02-21T00:30:21;100757.13;;;-1.20;54.66
54666;BME280;40566;50.006;36.180;2024-02-21T00:35:40;100759.59;;;-1.22;55.14
54666;BME280;40566;50.006;36.180;2024-02-21T00:40:59;100743.16;;;-1.31;55.51
54666;BME280;40566;50.006;36.180;2024-02-21T00:46:18;100730.41;;;-1.33;55.51
54666;BME280;40566;50.006;36.180;2024-02-21T00:51:37;100734.69;;;-1.32;55.72
54666;BME280;40566;50.006;36.180;2024-02-21T00:56:55;100724.41;;;-1.35;55.75
54666;BME280;40566;50.006;36.180;2024-02-21T01:02:14;100728.19;;;-1.48;56.03
54666;BME280;40566;50.006;36.180;2024-02-21T01:07:33;100717.16;;;-1.48;56.26
54666;BME280;40566;50.006;36.180;2024-02-21T01:12:52;100714.88;;;-1.42;55.96
54666;BME280;40566;50.006;36.180;2024-02-21T01:18:11;100716.50;;;-1.44;56.23
54666;BME280;40566;50.006;36.180;2024-02-21T01:23:30;100713.13;;;-1.43;56.15
54666;BME280;40566;50.006;36.180;2024-02-21T01:28:49;100701.94;;;-1.48;56.34
54666;BME280;40566;50.006;36.180;2024-02-21T01:34:08;100698.19;;;-1.58;56.61
54666;BME280;40566;50.006;36.180;2024-02-21T01:39:27;100701.78;;;-1.53;56.72
54666;BME280;40566;50.006;36.180;2024-02-21T01:44:46;100707.19;;;-1.44;56.62
54666;BME280;40566;50.006;36.180;2024-02-21T01:50:05;100699.31;;;-1.51;56.75
54666;BME280;40566;50.006;36.180;2024-02-21T01:55:25;100697.53;;;-1.54;56.92
54666;BME280;40566;50.006;36.180;2024-02-21T02:00:46;100688.03;;;-1.60;56.91
54666;BME280;40566;50.006;36.180;2024-02-21T02:06:06;100689.84;;;-1.55;57.00
54666;BME280;40566;50.006;36.180;2024-02-21T02:11:25;100676.94;;;-1.62;57.33
54666;BME280;40566;50.006;36.180;2024-02-21T02:16:48;100669.16;;;-1.66;57.40
54666;BME280;40566;50.006;36.180;2024-02-21T02:22:15;100674.41;;;-1.62;57.53
54666;BME280;40566;50.006;36.180;2024-02-21T02:27:42;100676.47;;;-1.51;57.57
54666;BME280;40566;50.006;36.180;2024-02-21T02:33:04;100681.53;;;-1.51;57.60
54666;BME280;40566;50.006;36.180;2024-02-21T02:38:23;100686.63;;;-1.51;57.90
54666;BME280;40566;50.006;36.180;2024-02-21T02:43:41;100681.91;;;-1.65;58.21
54666;BME280;40566;50.006;36.180;2024-02-21T02:49:00;100676.13;;;-1.61;57.96
54666;BME280;40566;50.006;36.180;2024-02-21T02:54:19;100679.44;;;-1.63;58.25
54666;BME280;40566;50.006;36.180;2024-02-21T02:59:38;100681.91;;;-1.65;58.49
54666;BME280;40566;50.006;36.180;2024-02-21T03:04:57;100680.41;;;-1.60;58.72
54666;BME280;40566;50.006;36.180;2024-02-21T03:10:16;100677.16;;;-1.55;58.74
54666;BME280;40566;50.006;36.180;2024-02-21T03:15:36;100676.34;;;-1.54;58.65
54666;BME280;40566;50.006;36.180;2024-02-21T03:20:55;100678.66;;;-1.61;59.08
54666;BME280;40566;50.006;36.180;2024-02-21T03:26:13;100679.66;;;-1.57;58.99
54666;BME280;40566;50.006;36.180;2024-02-21T03:31:35;100680.97;;;-1.67;59.33
54666;BME280;40566;50.006;36.180;2024-02-21T03:36:54;100682.31;;;-1.76;59.71
54666;BME280;40566;50.006;36.180;2024-02-21T03:42:13;100679.00;;;-1.74;59.66
54666;BME280;40566;50.006;36.180;2024-02-21T03:47:32;100685.69;;;-1.76;59.64
54666;BME280;40566;50.006;36.180;2024-02-21T03:52:51;100678.56;;;-1.86;60.01
54666;BME280;40566;50.006;36.180;2024-02-21T03:58:10;100665.16;;;-1.84;60.13
54666;BME280;40566;50.006;36.180;2024-02-21T04:03:30;100674.41;;;-1.84;60.07
54666;BME280;40566;50.006;36.180;2024-02-21T04:08:49;100666.75;;;-1.86;60.01
54666;BME280;40566;50.006;36.180;2024-02-21T04:14:08;100662.44;;;-1.88;60.15
54666;BME280;40566;50.006;36.180;2024-02-21T04:19:27;100667.50;;;-1.88;60.30
54666;BME280;40566;50.006;36.180;2024-02-21T04:24:46;100667.41;;;-1.91;60.19
54666;BME280;40566;50.006;36.180;2024-02-21T04:30:06;100668.03;;;-1.97;60.36
54666;BME280;40566;50.006;36.180;2024-02-21T04:35:25;100661.91;;;-2.02;60.70
54666;BME280;40566;50.006;36.180;2024-02-21T04:40:44;100665.56;;;-1.95;60.63
54666;BME280;40566;50.006;36.180;2024-02-21T04:46:04;100653.47;;;-2.03;60.58
54666;BME280;40566;50.006;36.180;2024-02-21T04:51:23;100662.84;;;-2.00;60.75
54666;BME280;40566;50.006;36.180;2024-02-21T04:56:42;100666.81;;;-2.07;60.93
54666;BME280;40566;50.006;36.180;2024-02-21T05:02:02;100661.75;;;-2.07;61.09
54666;BME280;40566;50.006;36.180;2024-02-21T05:07:21;100665.50;;;-1.97;60.83
54666;BME280;40566;50.006;36.180;2024-02-21T05:12:40;100660.66;;;-1.91;60.59
54666;BME280;40566;50.006;36.180;2024-02-21T05:17:59;100662.38;;;-1.90;60.61
54666;BME280;40566;50.006;36.180;2024-02-21T05:23:18;100667.09;;;-1.76;60.48
54666;BME280;40566;50.006;36.180;2024-02-21T05:28:37;100666.34;;;-1.74;60.55
54666;BME280;40566;50.006;36.180;2024-02-21T05:33:56;100664.38;;;-1.58;60.32
54666;BME280;40566;50.006;36.180;2024-02-21T05:39:16;100651.66;;;-1.36;59.90
54666;BME280;40566;50.006;36.180;2024-02-21T05:44:35;100649.41;;;-1.27;59.80
54666;BME280;40566;50.006;36.180;2024-02-21T05:49:55;100642.19;;;-1.16;59.67
54666;BME280;40566;50.006;36.180;2024-02-21T05:55:14;100653.69;;;-1.26;60.09
54666;BME280;40566;50.006;36.180;2024-02-21T06:00:33;100653.84;;;-1.21;60.12
54666;BME280;40566;50.006;36.180;2024-02-21T06:05:52;100658.28;;;-1.15;59.98
54666;BME280;40566;50.006;36.180;2024-02-21T06:11:11;100654.97;;;-0.87;59.59
54666;BME280;40566;50.006;36.180;2024-02-21T06:16:30;100638.63;;;-0.70;59.55
54666;BME280;40566;50.006;36.180;2024-02-21T06:21:49;100635.53;;;-0.61;59.41
54666;BME280;40566;50.006;36.180;2024-02-21T06:27:07;100635.75;;;-0.53;59.28
54666;BME280;40566;50.006;36.180;2024-02-21T06:32:26;100641.25;;;-0.40;59.06
54666;BME280;40566;50.006;36.180;2024-02-21T06:37:45;100646.38;;;-0.38;59.17
54666;BME280;40566;50.006;36.180;2024-02-21T06:43:09;100651.91;;;-0.24;58.75
54666;BME280;40566;50.006;36.180;2024-02-21T06:48:28;100648.06;;;-0.38;59.24
54666;BME280;40566;50.006;36.180;2024-02-21T06:53:47;100648.03;;;-0.40;59.20
54666;BME280;40566;50.006;36.180;2024-02-21T06:59:07;100640.81;;;-0.26;58.96
54666;BME280;40566;50.006;36.180;2024-02-21T07:04:26;100637.94;;;-0.10;58.67
54666;BME280;40566;50.006;36.180;2024-02-21T07:09:46;100630.31;;;-0.10;58.67
54666;BME280;40566;50.006;36.180;2024-02-21T07:15:07;100631.66;;;0.08;58.31
54666;BME280;40566;50.006;36.180;2024-02-21T07:20:26;100638.41;;;0.36;57.80
54666;BME280;40566;50.006;36.180;2024-02-21T07:25:45;100628.56;;;0.18;58.34
54666;BME280;40566;50.006;36.180;2024-02-21T07:31:04;100631.84;;;0.14;58.51
54666;BME280;40566;50.006;36.180;2024-02-21T07:36:30;100641.13;;;0.13;58.58
54666;BME280;40566;50.006;36.180;2024-02-21T07:41:49;100638.91;;;0.24;58.47
54666;BME280;40566;50.006;36.180;2024-02-21T07:47:08;100633.59;;;0.16;58.61
54666;BME280;40566;50.006;36.180;2024-02-21T07:52:26;100633.38;;;0.09;58.58
54666;BME280;40566;50.006;36.180;2024-02-21T07:57:45;100636.59;;;0.03;58.65
54666;BME280;40566;50.006;36.180;2024-02-21T08:03:04;100639.94;;;0.01;58.79
54666;BME280;40566;50.006;36.180;2024-02-21T08:08:23;100642.13;;;-0.10;59.18
54666;BME280;40566;50.006;36.180;2024-02-21T08:13:43;100638.03;;;0.24;58.50
54666;BME280;40566;50.006;36.180;2024-02-21T08:19:02;100636.09;;;0.77;57.51
54666;BME280;40566;50.006;36.180;2024-02-21T08:24:23;100638.00;;;1.17;56.91
54666;BME280;40566;50.006;36.180;2024-02-21T08:29:42;100643.47;;;1.33;56.69
54666;BME280;40566;50.006;36.180;2024-02-21T08:35:01;100641.56;;;1.26;57.15
54666;BME280;40566;50.006;36.180;2024-02-21T08:40:20;100635.41;;;1.16;57.55
54666;BME280;40566;50.006;36.180;2024-02-21T08:45:43;100648.13;;;1.51;56.81
54666;BME280;40566;50.006;36.180;2024-02-21T08:51:02;100657.53;;;1.90;56.54
54666;BME280;40566;50.006;36.180;2024-02-21T08:56:22;100657.91;;;2.08;56.09
54666;BME280;40566;50.006;36.180;2024-02-21T09:01:42;100656.59;;;2.26;55.63
54666;BME280;40566;50.006;36.180;2024-02-21T09:07:00;100647.44;;;1.56;57.18
54666;BME280;40566;50.006;36.180;2024-02-21T09:12:19;100649.66;;;1.43;57.33
54666;BME280;40566;50.006;36.180;2024-02-21T09:17:38;100644.59;;;1.46;57.25
54666;BME280;40566;50.006;36.180;2024-02-21T09:22:58;100648.66;;;1.37;57.20
54666;BME280;40566;50.006;36.180;2024-02-21T09:28:17;100640.59;;;1.55;56.58
54666;BME280;40566;50.006;36.180;2024-02-21T09:33:35;100639.19;;;1.32;57.15
54666;BME280;40566;50.006;36.180;2024-02-21T09:38:55;100615.56;;;1.04;57.78
54666;BME280;40566;50.006;36.180;2024-02-21T09:44:14;100617.75;;;1.24;57.17
54666;BME280;40566;50.006;36.180;2024-02-21T09:49:34;100612.59;;;1.21;57.25
54666;BME280;40566;50.006;36.180;2024-02-21T09:54:58;100613.91;;;1.06;57.41
54666;BME280;40566;50.006;36.180;2024-02-21T10:00:17;100613.16;;;1.10;57.64
54666;BME280;40566;50.006;36.180;2024-02-21T10:05:47;100615.63;;;0.72;58.36
54666;BME280;40566;50.006;36.180;2024-02-21T10:11:08;100603.78;;;0.74;58.59
54666;BME280;40566;50.006;36.180;2024-02-21T10:16:28;100604.03;;;0.84;58.72
54666;BME280;40566;50.006;36.180;2024-02-21T10:27:23;100598.53;;;1.38;57.57
54666;BME280;40566;50.006;36.180;2024-02-21T10:32:53;100596.97;;;1.43;57.48
54666;BME280;40566;50.006;36.180;2024-02-21T10:38:12;100587.88;;;1.18;58.29
54666;BME280;40566;50.006;36.180;2024-02-21T10:43:39;100582.19;;;0.93;58.94
54666;BME280;40566;50.006;36.180;2024-02-21T10:49:08;100580.94;;;1.11;58.83
54666;BME280;40566;50.006;36.180;2024-02-21T10:54:44;100579.47;;;1.21;58.89
54666;BME280;40566;50.006;36.180;2024-02-21T11:00:09;100571.06;;;1.26;58.97
54666;BME280;40566;50.006;36.180;2024-02-21T11:05:32;100569.59;;;1.34;58.91
54666;BME280;40566;50.006;36.180;2024-02-21T11:10:56;100563.91;;;1.46;58.43
54666;BME280;40566;50.006;36.180;2024-02-21T11:16:23;100554.41;;;1.39;58.65
54666;BME280;40566;50.006;36.180;2024-02-21T11:21:42;100554.25;;;1.33;59.10
54666;BME280;40566;50.006;36.180;2024-02-21T11:32:27;100541.22;;;1.58;58.70
54666;BME280;40566;50.006;36.180;2024-02-21T11:37:48;100543.69;;;1.55;58.76
54666;BME280;40566;50.006;36.180;2024-02-21T11:43:08;100541.75;;;1.44;59.46
54666;BME280;40566;50.006;36.180;2024-02-21T11:48:27;100531.78;;;1.54;59.35
54666;BME280;40566;50.006;36.180;2024-02-21T11:53:45;100517.75;;;1.75;59.20
54666;BME280;40566;50.006;36.180;2024-02-21T11:59:04;100518.91;;;1.89;58.88
54666;BME280;40566;50.006;36.180;2024-02-21T12:04:25;100518.97;;;1.92;59.02
54666;BME280;40566;50.006;36.180;2024-02-21T12:09:44;100519.94;;;1.56;59.73
54666;BME280;40566;50.006;36.180;2024-02-21T12:15:04;100513.66;;;1.41;60.42
54666;BME280;40566;50.006;36.180;2024-02-21T12:20:23;100516.28;;;1.45;60.37
54666;BME280;40566;50.006;36.180;2024-02-21T12:25:43;100519.47;;;1.35;60.71
54666;BME280;40566;50.006;36.180;2024-02-21T12:31:03;100503.84;;;1.19;60.93
54666;BME280;40566;50.006;36.180;2024-02-21T12:36:22;100505.28;;;1.08;61.31
54666;BME280;40566;50.006;36.180;2024-02-21T12:41:43;100497.75;;;0.76;61.88
54666;BME280;40566;50.006;36.180;2024-02-21T12:47:05;100503.03;;;0.84;62.14
54666;BME280;40566;50.006;36.180;2024-02-21T12:52:24;100505.72;;;0.90;62.25
54666;BME280;40566;50.006;36.180;2024-02-21T12:57:43;100501.06;;;1.09;61.79
54666;BME280;40566;50.006;36.180;2024-02-21T13:03:03;100496.59;;;1.00;62.30
54666;BME280;40566;50.006;36.180;2024-02-21T13:08:22;100505.06;;;0.99;62.45
54666;BME280;40566;50.006;36.180;2024-02-21T13:13:42;100508.63;;;1.06;62.44
54666;BME280;40566;50.006;36.180;2024-02-21T13:19:00;100507.31;;;0.87;63.01
54666;BME280;40566;50.006;36.180;2024-02-21T13:24:19;100508.72;;;0.74;63.53
54666;BME280;40566;50.006;36.180;2024-02-21T13:29:38;100508.88;;;0.80;63.38
54666;BME280;40566;50.006;36.180;2024-02-21T13:34:58;100501.22;;;0.80;63.37
54666;BME280;40566;50.006;36.180;2024-02-21T13:40:19;100500.88;;;0.66;63.99
54666;BME280;40566;50.006;36.180;2024-02-21T13:45:38;100496.97;;;0.79;63.66
54666;BME280;40566;50.006;36.180;2024-02-21T13:51:00;100493.63;;;0.82;63.65
54666;BME280;40566;50.006;36.180;2024-02-21T13:56:20;100499.53;;;0.81;63.69
54666;BME280;40566;50.006;36.180;2024-02-21T14:01:39;100504.06;;;0.92;63.47
54666;BME280;40566;50.006;36.180;2024-02-21T14:06:58;100500.31;;;0.78;63.95
54666;BME280;40566;50.006;36.180;2024-02-21T14:12:18;100498.75;;;0.83;63.81
54666;BME280;40566;50.006;36.180;2024-02-21T14:17:39;100498.44;;;0.71;64.03
54666;BME280;40566;50.006;36.180;2024-02-21T14:22:58;100505.38;;;0.76;63.99
54666;BME280;40566;50.006;36.180;2024-02-21T14:28:17;100486.88;;;0.84;64.03
54666;BME280;40566;50.006;36.180;2024-02-21T14:33:37;100483.50;;;0.83;64.11
54666;BME280;40566;50.006;36.180;2024-02-21T14:38:56;100491.00;;;0.78;64.27
54666;BME280;40566;50.006;36.180;2024-02-21T14:44:16;100490.19;;;0.79;64.20
54666;BME280;40566;50.006;36.180;2024-02-21T14:49:35;100485.84;;;0.77;64.36
54666;BME280;40566;50.006;36.180;2024-02-21T14:54:54;100478.13;;;0.72;64.30
54666;BME280;40566;50.006;36.180;2024-02-21T15:00:15;100477.19;;;0.69;64.51
54666;BME280;40566;50.006;36.180;2024-02-21T15:05:34;100482.94;;;0.60;64.79
54666;BME280;40566;50.006;36.180;2024-02-21T15:10:53;100485.38;;;0.57;65.03
54666;BME280;40566;50.006;36.180;2024-02-21T15:16:12;100487.03;;;0.55;64.87
54666;BME280;40566;50.006;36.180;2024-02-21T15:21:31;100478.63;;;0.59;64.93
54666;BME280;40566;50.006;36.180;2024-02-21T15:26:51;100487.81;;;0.52;65.20
54666;BME280;40566;50.006;36.180;2024-02-21T15:32:10;100491.25;;;0.54;65.14
54666;BME280;40566;50.006;36.180;2024-02-21T15:37:29;100485.22;;;0.51;65.22
54666;BME280;40566;50.006;36.180;2024-02-21T15:42:48;100498.09;;;0.55;65.29
54666;BME280;40566;50.006;36.180;2024-02-21T15:48:07;100494.72;;;0.56;65.28
54666;BME280;40566;50.006;36.180;2024-02-21T15:53:26;100492.31;;;0.63;65.20
54666;BME280;40566;50.006;36.180;2024-02-21T15:58:45;100491.38;;;0.59;65.41
54666;BME280;40566;50.006;36.180;2024-02-21T16:04:05;100493.72;;;0.50;65.79
54666;BME280;40566;50.006;36.180;2024-02-21T16:09:24;100499.69;;;0.52;65.66
54666;BME280;40566;50.006;36.180;2024-02-21T16:14:43;100496.41;;;0.56;65.81
54666;BME280;40566;50.006;36.180;2024-02-21T16:20:02;100499.75;;;0.53;65.73
54666;BME280;40566;50.006;36.180;2024-02-21T16:25:22;100492.06;;;0.52;66.08
54666;BME280;40566;50.006;36.180;2024-02-21T16:30:41;100493.09;;;0.60;65.99
54666;BME280;40566;50.006;36.180;2024-02-21T16:36:02;100483.63;;;0.54;66.10
54666;BME280;40566;50.006;36.180;2024-02-21T16:41:21;100481.78;;;0.49;66.48
54666;BME280;40566;50.006;36.180;2024-02-21T16:46:40;100477.53;;;0.48;66.54
54666;BME280;40566;50.006;36.180;2024-02-21T16:51:59;100480.28;;;0.57;66.19
54666;BME280;40566;50.006;36.180;2024-02-21T16:57:19;100481.78;;;0.49;66.68
54666;BME280;40566;50.006;36.180;2024-02-21T17:02:39;100474.34;;;0.56;66.64
54666;BME280;40566;50.006;36.180;2024-02-21T17:07:58;100475.19;;;0.55;66.70
54666;BME280;40566;50.006;36.180;2024-02-21T17:13:17;100477.63;;;0.52;66.70
54666;BME280;40566;50.006;36.180;2024-02-21T17:18:35;100469.41;;;0.63;66.52
54666;BME280;40566;50.006;36.180;2024-02-21T17:23:54;100464.34;;;0.64;66.64
54666;BME280;40566;50.006;36.180;2024-02-21T17:29:13;100468.25;;;0.51;67.02
54666;BME280;40566;50.006;36.180;2024-02-21T17:34:33;100468.31;;;0.53;67.21
54666;BME280;40566;50.006;36.180;2024-02-21T17:39:52;100456.47;;;0.55;67.11
54666;BME280;40566;50.006;36.180;2024-02-21T17:45:12;100454.03;;;0.58;66.91
54666;BME280;40566;50.006;36.180;2024-02-21T17:50:31;100459.06;;;0.56;67.09
54666;BME280;40566;50.006;36.180;2024-02-21T17:55:49;100455.34;;;0.42;67.37
54666;BME280;40566;50.006;36.180;2024-02-21T18:01:09;100458.81;;;0.46;67.58
54666;BME280;40566;50.006;36.180;2024-02-21T18:06:28;100451.34;;;0.52;67.64
54666;BME280;40566;50.006;36.180;2024-02-21T18:11:46;100453.19;;;0.59;67.39
54666;BME280;40566;50.006;36.180;2024-02-21T18:17:05;100455.81;;;0.62;67.31
54666;BME280;40566;50.006;36.180;2024-02-21T18:22:25;100442.09;;;0.57;67.57
54666;BME280;40566;50.006;36.180;2024-02-21T18:27:45;100450.63;;;0.57;67.70
54666;BME280;40566;50.006;36.180;2024-02-21T18:33:04;100449.03;;;0.63;67.63
54666;BME280;40566;50.006;36.180;2024-02-21T18:38:23;100447.28;;;0.60;67.67
54666;BME280;40566;50.006;36.180;2024-02-21T18:43:42;100442.94;;;0.56;68.02
54666;BME280;40566;50.006;36.180;2024-02-21T18:49:02;100439.50;;;0.54;68.13
54666;BME280;40566;50.006;36.180;2024-02-21T18:54:22;100432.72;;;0.54;68.33
54666;BME280;40566;50.006;36.180;2024-02-21T18:59:42;100427.81;;;0.62;68.17
54666;BME280;40566;50.006;36.180;2024-02-21T19:05:02;100425.13;;;0.56;68.48
54666;BME280;40566;50.006;36.180;2024-02-21T19:10:22;100427.84;;;0.64;68.13
54666;BME280;40566;50.006;36.180;2024-02-21T19:15:41;100419.47;;;0.68;68.37
54666;BME280;40566;50.006;36.180;2024-02-21T19:21:00;100414.41;;;0.69;68.57
54666;BME280;40566;50.006;36.180;2024-02-21T19:26:19;100422.19;;;0.75;68.28
54666;BME280;40566;50.006;36.180;2024-02-21T19:31:38;100410.41;;;0.79;68.36
54666;BME280;40566;50.006;36.180;2024-02-21T19:36:58;100415.38;;;0.74;68.57
54666;BME280;40566;50.006;36.180;2024-02-21T19:42:17;100405.22;;;0.76;68.62
54666;BME280;40566;50.006;36.180;2024-02-21T19:47:36;100412.00;;;0.77;68.72
54666;BME280;40566;50.006;36.180;2024-02-21T19:52:55;100406.22;;;0.83;68.77
54666;BME280;40566;50.006;36.180;2024-02-21T19:58:15;100403.66;;;0.81;68.82
54666;BME280;40566;50.006;36.180;2024-02-21T20:03:34;100398.53;;;0.79;69.05
54666;BME280;40566;50.006;36.180;2024-02-21T20:08:53;100401.81;;;0.75;69.05
54666;BME280;40566;50.006;36.180;2024-02-21T20:14:12;100390.91;;;0.81;69.06
54666;BME280;40566;50.006;36.180;2024-02-21T20:19:32;100388.28;;;0.78;69.33
54666;BME280;40566;50.006;36.180;2024-02-21T20:24:51;100384.03;;;0.78;69.30
54666;BME280;40566;50.006;36.180;2024-02-21T20:30:10;100384.03;;;0.78;69.50
54666;BME280;40566;50.006;36.180;2024-02-21T20:35:29;100380.78;;;0.84;69.44
54666;BME280;40566;50.006;36.180;2024-02-21T20:40:49;100376.63;;;0.88;69.42
54666;BME280;40566;50.006;36.180;2024-02-21T20:46:08;100380.75;;;0.83;69.59
54666;BME280;40566;50.006;36.180;2024-02-21T20:51:27;100365.59;;;0.87;69.59
54666;BME280;40566;50.006;36.180;2024-02-21T20:56:46;100369.03;;;0.91;69.59
54666;BME280;40566;50.006;36.180;2024-02-21T21:02:05;100365.59;;;0.89;69.73
54666;BME280;40566;50.006;36.180;2024-02-21T21:07:24;100364.78;;;0.90;69.97
54666;BME280;40566;50.006;36.180;2024-02-21T21:12:43;100364.81;;;0.91;69.71
54666;BME280;40566;50.006;36.180;2024-02-21T21:18:03;100368.84;;;0.82;70.04
54666;BME280;40566;50.006;36.180;2024-02-21T21:23:22;100363.00;;;0.86;69.99
54666;BME280;40566;50.006;36.180;2024-02-21T21:28:41;100360.53;;;0.90;70.06
54666;BME280;40566;50.006;36.180;2024-02-21T21:34:00;100363.88;;;0.88;70.31
54666;BME280;40566;50.006;36.180;2024-02-21T21:39:19;100356.22;;;0.86;70.47
54666;BME280;40566;50.006;36.180;2024-02-21T21:44:38;100357.94;;;0.87;70.47
54666;BME280;40566;50.006;36.180;2024-02-21T21:49:57;100357.94;;;0.89;70.41
54666;BME280;40566;50.006;36.180;2024-02-21T21:55:16;100359.09;;;1.02;70.08
54666;BME280;40566;50.006;36.180;2024-02-21T22:00:35;100357.31;;;0.97;70.24
54666;BME280;40566;50.006;36.180;2024-02-21T22:05:54;100349.56;;;0.93;70.51
54666;BME280;40566;50.006;36.180;2024-02-21T22:11:14;100351.97;;;0.87;70.71
54666;BME280;40566;50.006;36.180;2024-02-21T22:16:35;100344.97;;;0.76;70.86
54666;BME280;40566;50.006;36.180;2024-02-21T22:21:54;100343.31;;;0.78;70.93
54666;BME280;40566;50.006;36.180;2024-02-21T22:27:13;100341.66;;;0.79;70.95
54666;BME280;40566;50.006;36.180;2024-02-21T22:32:32;100348.34;;;0.75;71.11
54666;BME280;40566;50.006;36.180;2024-02-21T22:37:51;100346.03;;;0.86;70.89
54666;BME280;40566;50.006;36.180;2024-02-21T22:43:10;100351.88;;;0.82;71.11
54666;BME280;40566;50.006;36.180;2024-02-21T22:48:29;100352.47;;;0.70;71.21
54666;BME280;40566;50.006;36.180;2024-02-21T22:53:48;100345.78;;;0.74;71.31
54666;BME280;40566;50.006;36.180;2024-02-21T22:59:07;100337.63;;;0.51;71.80
54666;BME280;40566;50.006;36.180;2024-02-21T23:04:28;100335.72;;;0.42;72.14
54666;BME280;40566;50.006;36.180;2024-02-21T23:09:46;100338.38;;;0.47;72.10
54666;BME280;40566;50.006;36.180;2024-02-21T23:15:07;100338.34;;;0.45;72.14
54666;BME280;40566;50.006;36.180;2024-02-21T23:20:26;100339.22;;;0.46;72.05
54666;BME280;40566;50.006;36.180;2024-02-21T23:25:46;100331.59;;;0.47;72.00
54666;BME280;40566;50.006;36.180;2024-02-21T23:31:04;100323.06;;;0.45;72.28
54666;BME280;40566;50.006;36.180;2024-02-21T23:36:23;100325.59;;;0.44;72.33
54666;BME280;40566;50.006;36.180;2024-02-21T23:41:42;100316.88;;;0.34;72.40
54666;BME280;40566;50.006;36.180;2024-02-21T23:47:02;100322.84;;;0.34;72.53
54666;BME280;40566;50.006;36.180;2024-02-21T23:52:21;100312.63;;;0.33;72.44
54666;BME280;40566;50.006;36.180;2024-02-21T23:57:40;100304.13;;;0.32;72.66
